Latest Weather Observations for Sydney Olympic Park

IDN60801

Issued at 11:35 pm EST Tuesday 30 September 2014 (issued every 30 minutes, with the page automatically refreshed every 10 minutes)

About weather observations | Map of weather stations | Latest weather observations for NSW | Other Formats
Station Details ID: 066212 Name: SYDNEY OLYMPIC PARK AWS (ARCHERY CENTRE) Lat: -33.83 Lon: 151.07 Height: 4.0 m
Data from the previous 72 hours. | See also: Recent months at Sydney Olympic Park
Date/Time
EST
Temp
°C
App
Temp
°C
Dew
Point
Rel
Hum
%
Delta-T
°C
Wind Press
QNH
hPa
Press
MSL
hPa
Rain
since 9 am
mm
Dir
 
Spd
km/h
Gust
km/h
Spd
kts
Gust
kts
30/11:30pm 23.5 20.9 5.9 32 8.9 WNW 9 13 5 7 - - 0.0
30/11:00pm 22.6 20.1 8.0 39 7.7 NW 11 20 6 11 - - 0.0
30/10:30pm 20.2 18.8 9.5 50 5.7 NNW 7 20 4 11 - - 0.0
30/10:00pm 19.7 18.8 10.7 56 4.9 NNW 6 7 3 4 - - 0.0
30/09:30pm 22.6 21.4 9.4 43 7.1 N 6 7 3 4 - - 0.0
30/09:00pm 24.5 22.2 5.8 30 9.5 N 7 9 4 5 - - 0.0
30/08:30pm 26.8 23.5 6.2 27 10.7 NNW 13 19 7 10 - - 0.0
30/08:00pm 27.1 23.2 5.4 25 11.2 NNW 15 24 8 13 - - 0.0
30/07:30pm 26.0 23.6 7.1 30 10.0 NW 9 13 5 7 - - 0.0
30/07:00pm 26.7 23.7 6.2 27 10.7 NW 11 17 6 9 - - 0.0
30/06:30pm 28.4 24.5 5.3 23 12.0 NW 15 24 8 13 - - 0.0
30/06:00pm 29.1 25.3 5.9 23 12.2 NW 15 28 8 15 - - 0.0
30/05:30pm 30.5 25.5 6.4 22 12.9 NW 22 41 12 22 - - 0.0
30/05:00pm 31.4 26.8 6.5 21 13.4 NW 20 35 11 19 - - 0.0
30/04:30pm 32.3 26.7 7.2 21 13.7 WNW 26 37 14 20 - - 0.0
30/04:05pm 32.5 26.2 5.9 19 14.2 NW 28 48 15 26 - - 0.0
30/04:00pm 32.8 27.0 4.6 17 14.8 NW 24 48 13 26 - - 0.0
30/03:30pm 32.5 27.6 6.7 20 14.0 NW 22 44 12 24 - - 0.0
30/03:00pm 32.8 26.1 5.4 18 14.6 NW 30 56 16 30 - - 0.0
30/02:59pm 33.1 27.0 6.4 19 14.5 NW 28 56 15 30 - - 0.0
30/02:30pm 32.8 27.4 6.2 19 14.3 NW 24 35 13 19 - - 0.0
30/02:00pm 32.8 27.7 7.6 21 13.9 NNW 24 41 13 22 - - 0.0
30/01:30pm 33.0 28.1 8.5 22 13.7 NNW 24 41 13 22 - - 0.0
30/01:00pm 32.8 28.6 9.6 24 13.2 NNW 22 39 12 21 - - 0.0
30/12:30pm 31.0 27.3 9.3 26 12.2 NNW 19 37 10 20 - - 0.0
30/12:00pm 27.9 24.9 10.6 34 9.8 NNW 17 28 9 15 - - 0.0
30/11:30am 27.1 24.2 9.5 33 9.7 NNW 15 22 8 12 - - 0.0
30/11:00am 26.3 24.0 10.5 37 8.8 NNW 13 20 7 11 - - 0.0
30/10:30am 26.6 24.2 11.5 39 8.6 NNW 15 24 8 13 - - 0.0
30/10:00am 27.0 24.8 10.7 36 9.2 NNW 13 22 7 12 - - 0.0
30/09:30am 25.1 24.1 14.6 52 6.3 NNW 13 17 7 9 - - 0.0
30/09:00am 24.4 26.8 17.1 63 4.5 CALM 0 0 0 0 - - 0.0
30/08:30am 22.8 25.2 17.0 70 3.6 CALM 0 0 0 0 - - 0.0
30/08:00am 18.4 20.8 16.9 91 0.9 CALM 0 2 0 1 - - 0.0
30/07:30am 16.7 18.9 16.4 98 0.2 CALM 0 0 0 0 - - 0.0
30/07:01am 14.6 16.0 14.3 98 0.2 CALM 0 0 0 0 - - 0.0
30/07:00am 14.6 16.0 14.3 98 0.2 CALM 0 0 0 0 - - 0.0
30/06:43am 14.1 15.3 13.8 98 0.2 CALM 0 0 0 0 - - 0.0
30/06:40am 14.1 15.3 13.8 98 0.2 CALM 0 0 0 0 - - 0.0
30/06:30am 13.7 14.8 13.4 98 0.2 CALM 0 0 0 0 - - 0.0
30/06:20am 13.6 14.6 13.3 98 0.2 CALM 0 0 0 0 - - 0.0
30/06:00am 13.6 14.6 13.3 98 0.2 NW 0 0 0 0 - - 0.0
30/05:30am 13.8 14.9 13.5 98 0.2 CALM 0 0 0 0 - - 0.0
30/05:00am 14.0 15.2 13.7 98 0.2 CALM 0 0 0 0 - - 0.0
30/04:30am 14.5 15.8 14.2 98 0.2 CALM 0 0 0 0 - - 0.0
30/04:00am 14.4 15.7 14.1 98 0.2 CALM 0 0 0 0 - - 0.0
30/03:30am 14.2 15.4 13.9 98 0.2 CALM 0 0 0 0 - - 0.0
30/03:00am 13.9 15.0 13.6 98 0.2 CALM 0 0 0 0 - - 0.0
30/02:30am 14.5 15.8 14.2 98 0.2 CALM 0 0 0 0 - - 0.0
30/02:00am 14.7 16.1 14.4 98 0.2 CALM 0 0 0 0 - - 0.0
30/01:30am 15.2 16.8 14.9 98 0.2 CALM 0 0 0 0 - - 0.0
30/01:00am 15.8 17.5 15.3 97 0.3 CALM 0 0 0 0 - - 0.0
30/12:30am 16.3 17.0 15.5 95 0.5 ESE 6 9 3 5 - - 0.0
30/12:17am 16.3 16.8 15.5 95 0.5 SE 7 9 4 5 - - 0.0
30/12:00am 16.7 17.3 15.9 95 0.5 SE 7 9 4 5 - - 0.0
 
Date/Time
EST
Temp
°C
App
Temp
°C
Dew
Point
Rel
Hum
%
Delta-T
°C
Wind Press
QNH
hPa
Press
MSL
hPa
Rain
since 9 am
mm
Dir
 
Spd
km/h
Gust
km/h
Spd
kts
Gust
kts
29/11:52pm 16.9 17.5 15.9 94 0.6 SE 7 9 4 5 - - 0.0
29/11:30pm 17.0 17.6 15.7 92 0.8 ESE 7 9 4 5 - - 0.0
29/11:00pm 18.3 18.1 15.7 85 1.5 E 11 17 6 9 - - 0.0
29/10:30pm 18.8 19.1 15.9 83 1.7 E 9 15 5 8 - - 0.0
29/10:00pm 18.9 19.0 15.4 80 2.1 E 9 15 5 8 - - 0.0
29/09:30pm 19.5 19.3 15.6 78 2.3 E 11 15 6 8 - - 0.0
29/09:00pm 19.7 19.3 15.1 75 2.7 E 11 15 6 8 - - 0.0
29/08:30pm 20.8 20.5 15.4 71 3.2 E 11 13 6 7 - - 0.0
29/08:00pm 22.6 21.5 14.4 60 4.8 E 13 19 7 10 - - 0.0
29/07:30pm 20.5 21.0 11.7 57 4.9 CALM 0 7 0 4 - - 0.0
29/07:00pm 22.3 21.4 10.5 47 6.5 WNW 6 7 3 4 - - 0.0
29/06:30pm 24.4 23.2 10.3 41 7.8 NW 7 9 4 5 - - 0.0
29/06:00pm 26.6 24.1 8.1 31 10.0 WNW 11 17 6 9 - - 0.0
29/05:30pm 27.8 24.6 8.6 30 10.5 WNW 15 22 8 12 - - 0.0
29/05:00pm 29.3 25.7 8.4 27 11.5 NW 17 30 9 16 - - 0.0
29/04:30pm 30.3 27.1 9.8 28 11.6 WNW 17 28 9 15 - - 0.0
29/04:00pm 30.7 26.7 9.0 26 12.1 NW 20 33 11 18 - - 0.0
29/03:30pm 31.1 27.5 9.9 27 12.0 NW 19 32 10 17 - - 0.0
29/03:00pm 31.5 28.1 9.1 25 12.6 NW 17 35 9 19 - - 0.0
29/02:30pm 31.3 27.8 10.1 27 12.1 NW 19 32 10 17 - - 0.0
29/02:00pm 31.5 28.7 8.5 24 12.8 NW 13 20 7 11 - - 0.0
29/01:30pm 31.2 27.7 8.8 25 12.5 NW 17 32 9 17 - - 0.0
29/01:00pm 30.9 27.4 8.6 25 12.4 WNW 17 30 9 16 - - 0.0
29/12:30pm 30.7 27.6 9.0 26 12.1 WNW 15 24 8 13 - - 0.0
29/12:00pm 29.6 27.1 9.7 29 11.2 NW 13 26 7 14 - - 0.0
29/11:30am 29.3 27.8 10.4 31 10.7 WNW 9 15 5 8 - - 0.0
29/11:00am 28.8 27.7 10.5 32 10.4 WNW 7 17 4 9 - - 0.0
29/10:30am 27.6 25.1 8.0 29 10.6 NW 11 20 6 11 - - 0.0
29/10:00am 27.2 25.3 9.1 32 9.9 NW 9 20 5 11 - - 0.0
29/09:30am 26.1 23.5 9.4 35 9.2 NNW 13 19 7 10 - - 0.0
29/09:00am 25.1 22.8 9.0 36 8.7 NW 11 19 6 10 - - 0.0
29/08:30am 23.5 20.5 9.1 40 7.7 NNW 15 20 8 11 - - 0.0
29/08:00am 22.8 19.6 8.5 40 7.6 NNW 15 20 8 11 - - 0.0
29/07:30am 21.8 19.6 9.3 45 6.7 NNW 11 22 6 12 - - 0.0
29/07:00am 20.2 18.0 7.9 45 6.3 NNW 9 17 5 9 - - 0.0
29/06:30am 19.1 16.4 7.5 47 5.9 NNW 11 15 6 8 - - 0.0
29/06:00am 18.4 15.7 7.2 48 5.6 NNW 11 17 6 9 - - 0.0
29/05:30am 18.5 15.7 7.0 47 5.8 N 11 20 6 11 - - 0.0
29/05:00am 18.0 15.7 7.4 50 5.3 N 9 17 5 9 - - 0.0
29/04:30am 16.6 14.1 9.8 64 3.6 NNW 13 20 7 11 - - 0.0
29/04:00am 13.5 12.7 11.2 86 1.2 NNW 6 13 3 7 - - 0.0
29/03:30am 11.6 12.0 11.3 98 0.2 CALM 0 0 0 0 - - 0.0
29/03:00am 11.6 12.0 11.1 97 0.3 CALM 0 0 0 0 - - 0.0
29/02:30am 12.1 12.6 11.6 97 0.3 CALM 0 0 0 0 - - 0.0
29/02:00am 12.5 13.0 11.6 94 0.5 CALM 0 0 0 0 - - 0.0
29/01:30am 13.2 13.7 11.6 90 0.9 CALM 0 0 0 0 - - 0.0
29/01:00am 14.7 14.4 11.5 81 1.7 NNW 4 9 2 5 - - 0.0
29/12:30am 16.1 15.4 11.9 76 2.3 NNE 7 11 4 6 - - 0.0
29/12:00am 15.4 15.5 13.9 91 0.8 ENE 6 11 3 6 - - 0.0
 
Date/Time
EST
Temp
°C
App
Temp
°C
Dew
Point
Rel
Hum
%
Delta-T
°C
Wind Press
QNH
hPa
Press
MSL
hPa
Rain
since 9 am
mm
Dir
 
Spd
km/h
Gust
km/h
Spd
kts
Gust
kts
28/11:30pm 13.8 14.7 13.0 95 0.4 CALM 0 4 0 2 - - 0.0
28/11:00pm 14.2 15.0 12.6 90 0.9 CALM 0 0 0 0 - - 0.0
28/10:30pm 15.0 15.9 12.9 87 1.2 CALM 0 0 0 0 - - 0.0
28/10:00pm 16.1 16.4 12.3 78 2.1 N 2 7 1 4 - - 0.0
28/09:30pm 17.0 16.4 12.3 74 2.6 N 7 13 4 7 - - 0.0
28/09:00pm 16.9 17.2 12.2 74 2.6 SSW 2 6 1 3 - - 0.0
28/08:30pm 18.2 17.7 12.2 68 3.3 N 6 17 3 9 - - 0.0
28/08:00pm 18.4 17.8 12.2 67 3.4 NNE 7 17 4 9 - - 0.0
28/07:30pm 18.7 17.4 12.5 67 3.5 NE 11 20 6 11 - - 0.0
28/07:00pm 18.9 18.0 12.6 67 3.5 NE 9 20 5 11 - - 0.0
28/06:30pm 19.0 17.9 13.0 68 3.4 NE 11 20 6 11 - - 0.0
28/06:00pm 19.4 18.7 13.3 68 3.5 ENE 9 17 5 9 - - 0.0
28/05:30pm 20.1 17.9 13.3 65 3.9 NE 17 26 9 14 - - 0.0
28/05:00pm 21.2 18.9 12.9 59 4.7 NE 17 28 9 15 - - 0.0
28/04:30pm 22.1 19.8 12.9 56 5.3 NE 17 22 9 12 - - 0.0
28/04:00pm 23.0 20.8 12.0 50 6.2 NE 15 30 8 16 - - 0.0
28/03:30pm 23.5 21.2 11.9 48 6.6 NE 15 26 8 14 - - 0.0
28/03:00pm 24.7 22.9 12.0 45 7.2 NE 13 20 7 11 - - 0.0
28/02:30pm 25.5 22.7 7.1 31 9.7 N 11 20 6 11 - - 0.0
28/02:00pm 25.2 21.5 6.4 30 9.7 N 15 24 8 13 - - 0.0
28/01:30pm 25.8 22.8 9.2 35 9.1 N 15 24 8 13 - - 0.0
28/01:00pm 25.0 22.1 8.1 34 9.0 N 13 24 7 13 - - 0.0
28/12:30pm 24.8 22.1 9.1 37 8.5 NNW 13 20 7 11 - - 0.0
28/12:00pm 23.8 21.0 8.6 38 8.1 N 13 22 7 12 - - 0.0
28/11:30am 23.8 22.2 11.5 46 6.9 N 11 20 6 11 - - 0.0
28/11:00am 23.4 22.1 11.1 46 6.9 NNW 9 15 5 8 - - 0.0
28/10:30am 22.1 20.7 10.9 49 6.2 NNW 9 19 5 10 - - 0.0
28/10:00am 21.4 19.4 11.4 53 5.5 NW 13 19 7 10 - - 0.0
28/09:30am 21.0 20.1 12.7 59 4.7 NNW 9 13 5 7 - - 0.0
28/09:00am 19.4 18.7 13.3 68 3.5 WNW 9 15 5 8 - - 0.0
28/08:30am 16.6 16.2 13.1 80 2.0 W 7 11 4 6 - - 0.0
28/08:00am 15.1 14.9 13.1 88 1.1 WNW 6 9 3 5 - - 0.0
28/07:30am 13.1 14.0 12.8 98 0.2 CALM 0 4 0 2 - - 0.0
28/07:00am 11.3 10.9 11.0 98 0.2 NW 4 7 2 4 - - 0.0
28/06:30am 9.6 9.5 9.3 98 0.1 CALM 0 0 0 0 - - 0.0
28/06:00am 9.0 8.7 8.7 98 0.1 CALM 0 0 0 0 - - 0.0
28/05:30am 8.9 8.6 8.6 98 0.1 CALM 0 0 0 0 - - 0.0
28/05:00am 8.7 8.3 8.4 98 0.1 CALM 0 0 0 0 - - 0.0
28/04:30am 9.3 9.1 9.0 98 0.1 CALM 0 0 0 0 - - 0.0
28/04:00am 9.4 9.2 9.1 98 0.1 CALM 0 0 0 0 - - 0.0
28/03:30am 9.5 9.3 9.2 98 0.1 CALM 0 0 0 0 - - 0.0
28/03:00am 9.8 9.7 9.5 98 0.1 CALM 0 0 0 0 - - 0.0
28/02:30am 10.1 10.1 9.8 98 0.2 CALM 0 0 0 0 - - 0.0
28/02:00am 10.5 10.6 10.2 98 0.2 CALM 0 0 0 0 - - 0.0
28/01:30am 10.3 10.4 10.0 98 0.2 CALM 0 0 0 0 - - 0.0
28/01:00am 10.9 11.1 10.6 98 0.2 CALM 0 0 0 0 - - 0.0
28/12:30am 11.0 11.2 10.7 98 0.2 CALM 0 0 0 0 - - 0.0
28/12:00am 11.4 11.8 11.1 98 0.2 CALM 0 0 0 0 - - 0.0

Other Formats:

Comma delimited format used in spreadsheet applications
http://www.bom.gov.au/fwo/IDN60801/IDN60801.95765.axf

JavaScript Object Notation format (JSON) in row-major order
http://www.bom.gov.au/fwo/IDN60801/IDN60801.95765.json